sensor_id;sensor_type;location;lat;lon;timestamp;temperature;humidity
42833;DHT22;64089;51.478;5.692;2023-06-10T00:01:12;22.20;94.70
42833;DHT22;64089;51.478;5.692;2023-06-10T00:03:38;22.10;94.70
42833;DHT22;64089;51.478;5.692;2023-06-10T00:06:04;22.00;94.70
42833;DHT22;64089;51.478;5.692;2023-06-10T00:08:30;22.10;94.80
42833;DHT22;64089;51.478;5.692;2023-06-10T00:10:56;22.00;94.90
42833;DHT22;64089;51.478;5.692;2023-06-10T00:13:22;21.90;94.90
42833;DHT22;64089;51.478;5.692;2023-06-10T00:15:48;21.90;94.90
42833;DHT22;64089;51.478;5.692;2023-06-10T00:18:13;21.90;95.00
42833;DHT22;64089;51.478;5.692;2023-06-10T00:20:39;21.80;95.00
42833;DHT22;64089;51.478;5.692;2023-06-10T00:23:06;21.80;95.00
42833;DHT22;64089;51.478;5.692;2023-06-10T00:25:33;21.70;95.00
42833;DHT22;64089;51.478;5.692;2023-06-10T00:27:59;21.70;95.10
42833;DHT22;64089;51.478;5.692;2023-06-10T00:30:25;21.70;95.10
42833;DHT22;64089;51.478;5.692;2023-06-10T00:32:50;21.70;95.20
42833;DHT22;64089;51.478;5.692;2023-06-10T00:35:16;21.70;95.30
42833;DHT22;64089;51.478;5.692;2023-06-10T00:37:41;21.60;95.30
42833;DHT22;64089;51.478;5.692;2023-06-10T00:40:07;21.50;95.40
42833;DHT22;64089;51.478;5.692;2023-06-10T00:42:34;21.50;95.40
42833;DHT22;64089;51.478;5.692;2023-06-10T00:45:00;21.50;95.60
42833;DHT22;64089;51.478;5.692;2023-06-10T00:47:26;21.40;95.70
42833;DHT22;64089;51.478;5.692;2023-06-10T00:49:52;21.30;95.80
42833;DHT22;64089;51.478;5.692;2023-06-10T00:52:19;21.40;96.00
42833;DHT22;64089;51.478;5.692;2023-06-10T00:54:47;21.20;95.90
42833;DHT22;64089;51.478;5.692;2023-06-10T00:57:13;21.10;96.20
42833;DHT22;64089;51.478;5.692;2023-06-10T00:59:43;21.00;96.30
42833;DHT22;64089;51.478;5.692;2023-06-10T01:02:11;20.90;96.70
42833;DHT22;64089;51.478;5.692;2023-06-10T01:04:37;20.70;97.00
42833;DHT22;64089;51.478;5.692;2023-06-10T01:08:00;20.60;97.30
42833;DHT22;64089;51.478;5.692;2023-06-10T01:11:13;20.40;97.60
42833;DHT22;64089;51.478;5.692;2023-06-10T01:13:17;20.40;97.80
42833;DHT22;64089;51.478;5.692;2023-06-10T01:15:44;20.30;98.00
42833;DHT22;64089;51.478;5.692;2023-06-10T01:18:10;20.30;97.90
42833;DHT22;64089;51.478;5.692;2023-06-10T01:20:41;20.30;97.90
42833;DHT22;64089;51.478;5.692;2023-06-10T01:23:09;20.30;97.90
42833;DHT22;64089;51.478;5.692;2023-06-10T01:25:39;20.20;97.90
42833;DHT22;64089;51.478;5.692;2023-06-10T01:28:31;20.20;98.00
42833;DHT22;64089;51.478;5.692;2023-06-10T01:31:18;20.20;98.00
42833;DHT22;64089;51.478;5.692;2023-06-10T01:33:51;20.10;98.10
42833;DHT22;64089;51.478;5.692;2023-06-10T01:36:18;20.10;98.20
42833;DHT22;64089;51.478;5.692;2023-06-10T01:38:46;20.10;98.20
42833;DHT22;64089;51.478;5.692;2023-06-10T01:41:13;20.10;98.20
42833;DHT22;64089;51.478;5.692;2023-06-10T01:43:39;20.00;98.20
42833;DHT22;64089;51.478;5.692;2023-06-10T01:46:06;20.00;98.30
42833;DHT22;64089;51.478;5.692;2023-06-10T01:48:32;20.00;98.40
42833;DHT22;64089;51.478;5.692;2023-06-10T01:50:58;20.00;98.50
42833;DHT22;64089;51.478;5.692;2023-06-10T01:53:23;19.90;98.50
42833;DHT22;64089;51.478;5.692;2023-06-10T01:55:49;19.80;98.60
42833;DHT22;64089;51.478;5.692;2023-06-10T01:58:15;19.80;98.80
42833;DHT22;64089;51.478;5.692;2023-06-10T02:00:40;19.80;98.80
42833;DHT22;64089;51.478;5.692;2023-06-10T02:03:06;19.80;98.90
42833;DHT22;64089;51.478;5.692;2023-06-10T02:05:31;19.70;99.00
42833;DHT22;64089;51.478;5.692;2023-06-10T02:07:57;19.70;99.10
42833;DHT22;64089;51.478;5.692;2023-06-10T02:10:23;19.60;99.30
42833;DHT22;64089;51.478;5.692;2023-06-10T02:12:48;19.60;99.40
42833;DHT22;64089;51.478;5.692;2023-06-10T02:15:15;19.60;99.50
42833;DHT22;64089;51.478;5.692;2023-06-10T02:17:41;19.50;99.70
42833;DHT22;64089;51.478;5.692;2023-06-10T02:20:07;19.50;99.90
42833;DHT22;64089;51.478;5.692;2023-06-10T02:22:36;19.50;99.90
42833;DHT22;64089;51.478;5.692;2023-06-10T02:25:02;19.40;99.90
42833;DHT22;64089;51.478;5.692;2023-06-10T02:27:29;19.40;99.90
42833;DHT22;64089;51.478;5.692;2023-06-10T02:29:56;19.40;99.90
42833;DHT22;64089;51.478;5.692;2023-06-10T02:32:21;19.30;99.90
42833;DHT22;64089;51.478;5.692;2023-06-10T02:34:47;19.20;99.90
42833;DHT22;64089;51.478;5.692;2023-06-10T02:37:14;19.20;99.90
42833;DHT22;64089;51.478;5.692;2023-06-10T02:39:40;19.20;99.90
42833;DHT22;64089;51.478;5.692;2023-06-10T02:42:06;19.10;99.90
42833;DHT22;64089;51.478;5.692;2023-06-10T02:44:31;19.10;99.90
42833;DHT22;64089;51.478;5.692;2023-06-10T02:46:57;19.10;99.90
42833;DHT22;64089;51.478;5.692;2023-06-10T02:49:23;19.10;99.90
42833;DHT22;64089;51.478;5.692;2023-06-10T02:51:50;19.00;99.90
42833;DHT22;64089;51.478;5.692;2023-06-10T02:54:18;19.00;99.90
42833;DHT22;64089;51.478;5.692;2023-06-10T02:56:43;19.00;99.90
42833;DHT22;64089;51.478;5.692;2023-06-10T02:59:09;18.90;99.90
42833;DHT22;64089;51.478;5.692;2023-06-10T03:01:36;18.90;99.90
42833;DHT22;64089;51.478;5.692;2023-06-10T03:04:04;18.90;99.90
42833;DHT22;64089;51.478;5.692;2023-06-10T03:06:30;18.80;99.90
42833;DHT22;64089;51.478;5.692;2023-06-10T03:08:55;18.80;99.90
42833;DHT22;64089;51.478;5.692;2023-06-10T03:11:21;18.80;99.90
42833;DHT22;64089;51.478;5.692;2023-06-10T03:13:46;18.80;99.90
42833;DHT22;64089;51.478;5.692;2023-06-10T03:16:12;18.70;99.90
42833;DHT22;64089;51.478;5.692;2023-06-10T03:18:38;18.70;99.90
42833;DHT22;64089;51.478;5.692;2023-06-10T03:21:03;18.60;99.90
42833;DHT22;64089;51.478;5.692;2023-06-10T03:23:29;18.60;99.90
42833;DHT22;64089;51.478;5.692;2023-06-10T03:25:55;18.60;99.90
42833;DHT22;64089;51.478;5.692;2023-06-10T03:28:21;18.50;99.90
42833;DHT22;64089;51.478;5.692;2023-06-10T03:30:47;18.50;99.90
42833;DHT22;64089;51.478;5.692;2023-06-10T03:33:13;18.50;99.90
42833;DHT22;64089;51.478;5.692;2023-06-10T03:35:39;18.50;99.90
42833;DHT22;64089;51.478;5.692;2023-06-10T03:38:05;18.50;99.90
42833;DHT22;64089;51.478;5.692;2023-06-10T03:40:31;18.50;99.90
42833;DHT22;64089;51.478;5.692;2023-06-10T03:42:57;18.50;99.90
42833;DHT22;64089;51.478;5.692;2023-06-10T03:45:23;18.50;99.90
42833;DHT22;64089;51.478;5.692;2023-06-10T03:47:49;18.40;99.90
42833;DHT22;64089;51.478;5.692;2023-06-10T03:50:15;18.50;99.90
42833;DHT22;64089;51.478;5.692;2023-06-10T03:52:41;18.50;99.90
42833;DHT22;64089;51.478;5.692;2023-06-10T03:55:07;18.50;99.90
42833;DHT22;64089;51.478;5.692;2023-06-10T03:57:33;18.50;99.90
42833;DHT22;64089;51.478;5.692;2023-06-10T03:59:58;18.50;99.90
42833;DHT22;64089;51.478;5.692;2023-06-10T04:02:24;18.50;99.90
42833;DHT22;64089;51.478;5.692;2023-06-10T04:04:50;18.40;99.90
42833;DHT22;64089;51.478;5.692;2023-06-10T04:07:16;18.50;99.90
42833;DHT22;64089;51.478;5.692;2023-06-10T04:09:44;18.50;99.90
42833;DHT22;64089;51.478;5.692;2023-06-10T04:12:09;18.50;99.90
42833;DHT22;64089;51.478;5.692;2023-06-10T04:14:36;18.50;99.90
42833;DHT22;64089;51.478;5.692;2023-06-10T04:17:04;18.50;99.90
42833;DHT22;64089;51.478;5.692;2023-06-10T04:19:32;18.60;99.90
42833;DHT22;64089;51.478;5.692;2023-06-10T04:21:57;18.60;99.90
42833;DHT22;64089;51.478;5.692;2023-06-10T04:24:23;18.60;99.90
42833;DHT22;64089;51.478;5.692;2023-06-10T04:26:49;18.60;99.90
42833;DHT22;64089;51.478;5.692;2023-06-10T04:29:15;18.60;99.90
42833;DHT22;64089;51.478;5.692;2023-06-10T04:31:40;18.70;99.90
42833;DHT22;64089;51.478;5.692;2023-06-10T04:34:06;18.70;99.90
42833;DHT22;64089;51.478;5.692;2023-06-10T04:36:33;18.70;99.90
42833;DHT22;64089;51.478;5.692;2023-06-10T04:38:58;18.70;99.90
42833;DHT22;64089;51.478;5.692;2023-06-10T04:41:24;18.80;99.90
42833;DHT22;64089;51.478;5.692;2023-06-10T04:43:51;18.70;99.90
42833;DHT22;64089;51.478;5.692;2023-06-10T04:46:16;18.80;99.90
42833;DHT22;64089;51.478;5.692;2023-06-10T04:48:42;18.80;99.90
42833;DHT22;64089;51.478;5.692;2023-06-10T04:51:08;18.90;99.90
42833;DHT22;64089;51.478;5.692;2023-06-10T04:53:33;18.90;99.90
42833;DHT22;64089;51.478;5.692;2023-06-10T04:55:59;18.90;99.90
42833;DHT22;64089;51.478;5.692;2023-06-10T04:58:24;19.00;99.90
42833;DHT22;64089;51.478;5.692;2023-06-10T05:00:50;19.10;99.90
42833;DHT22;64089;51.478;5.692;2023-06-10T05:03:16;19.10;99.90
42833;DHT22;64089;51.478;5.692;2023-06-10T05:05:41;19.20;99.90
42833;DHT22;64089;51.478;5.692;2023-06-10T05:08:07;19.30;99.90
42833;DHT22;64089;51.478;5.692;2023-06-10T05:10:33;19.30;99.90
42833;DHT22;64089;51.478;5.692;2023-06-10T05:12:59;19.40;99.90
42833;DHT22;64089;51.478;5.692;2023-06-10T05:15:25;19.40;99.90
42833;DHT22;64089;51.478;5.692;2023-06-10T05:17:51;19.50;99.90
42833;DHT22;64089;51.478;5.692;2023-06-10T05:20:18;19.50;99.90
42833;DHT22;64089;51.478;5.692;2023-06-10T05:22:44;19.60;99.90
42833;DHT22;64089;51.478;5.692;2023-06-10T05:25:10;19.70;99.90
42833;DHT22;64089;51.478;5.692;2023-06-10T05:27:35;19.70;99.90
42833;DHT22;64089;51.478;5.692;2023-06-10T05:30:02;19.80;99.90
42833;DHT22;64089;51.478;5.692;2023-06-10T05:32:28;19.80;99.90
42833;DHT22;64089;51.478;5.692;2023-06-10T05:34:54;19.80;99.90
42833;DHT22;64089;51.478;5.692;2023-06-10T05:37:19;20.00;99.90
42833;DHT22;64089;51.478;5.692;2023-06-10T05:39:45;20.00;99.90
42833;DHT22;64089;51.478;5.692;2023-06-10T05:42:11;20.10;99.90
42833;DHT22;64089;51.478;5.692;2023-06-10T05:44:36;20.10;99.90
42833;DHT22;64089;51.478;5.692;2023-06-10T05:47:02;20.20;99.90
42833;DHT22;64089;51.478;5.692;2023-06-10T05:49:28;20.20;99.90
42833;DHT22;64089;51.478;5.692;2023-06-10T05:51:53;20.30;99.90
42833;DHT22;64089;51.478;5.692;2023-06-10T05:54:19;20.40;99.90
42833;DHT22;64089;51.478;5.692;2023-06-10T05:56:44;20.40;99.90
42833;DHT22;64089;51.478;5.692;2023-06-10T05:59:10;20.50;99.90
42833;DHT22;64089;51.478;5.692;2023-06-10T06:01:36;20.60;99.90
42833;DHT22;64089;51.478;5.692;2023-06-10T06:04:01;20.70;99.90
42833;DHT22;64089;51.478;5.692;2023-06-10T06:06:27;20.70;99.90
42833;DHT22;64089;51.478;5.692;2023-06-10T06:08:53;20.80;99.90
42833;DHT22;64089;51.478;5.692;2023-06-10T06:11:18;20.80;99.90
42833;DHT22;64089;51.478;5.692;2023-06-10T06:13:44;20.90;99.90
42833;DHT22;64089;51.478;5.692;2023-06-10T06:16:09;21.00;99.90
42833;DHT22;64089;51.478;5.692;2023-06-10T06:18:35;21.00;99.90
42833;DHT22;64089;51.478;5.692;2023-06-10T06:21:00;21.00;99.90
42833;DHT22;64089;51.478;5.692;2023-06-10T06:23:26;21.00;99.90
42833;DHT22;64089;51.478;5.692;2023-06-10T06:25:51;21.10;99.90
42833;DHT22;64089;51.478;5.692;2023-06-10T06:28:17;21.20;99.90
42833;DHT22;64089;51.478;5.692;2023-06-10T06:30:44;21.30;99.90
42833;DHT22;64089;51.478;5.692;2023-06-10T06:33:10;21.40;99.90
42833;DHT22;64089;51.478;5.692;2023-06-10T06:35:35;21.40;99.90
42833;DHT22;64089;51.478;5.692;2023-06-10T06:38:03;21.60;99.90
42833;DHT22;64089;51.478;5.692;2023-06-10T06:40:29;21.70;99.90
42833;DHT22;64089;51.478;5.692;2023-06-10T06:42:55;21.70;99.90
42833;DHT22;64089;51.478;5.692;2023-06-10T06:45:20;21.70;99.90
42833;DHT22;64089;51.478;5.692;2023-06-10T06:47:46;21.80;99.90
42833;DHT22;64089;51.478;5.692;2023-06-10T06:50:11;21.80;99.90
42833;DHT22;64089;51.478;5.692;2023-06-10T06:52:37;21.80;99.90
42833;DHT22;64089;51.478;5.692;2023-06-10T06:55:03;21.80;99.90
42833;DHT22;64089;51.478;5.692;2023-06-10T06:57:28;21.90;99.90
42833;DHT22;64089;51.478;5.692;2023-06-10T06:59:54;22.10;99.90
42833;DHT22;64089;51.478;5.692;2023-06-10T07:02:20;22.20;99.90
42833;DHT22;64089;51.478;5.692;2023-06-10T07:04:45;22.30;99.90
42833;DHT22;64089;51.478;5.692;2023-06-10T07:07:14;22.50;99.90
42833;DHT22;64089;51.478;5.692;2023-06-10T07:09:39;22.60;99.90
42833;DHT22;64089;51.478;5.692;2023-06-10T07:12:05;22.70;99.90
42833;DHT22;64089;51.478;5.692;2023-06-10T07:14:31;22.80;99.90
42833;DHT22;64089;51.478;5.692;2023-06-10T07:16:57;22.80;99.90
42833;DHT22;64089;51.478;5.692;2023-06-10T07:19:22;22.90;99.90
42833;DHT22;64089;51.478;5.692;2023-06-10T07:21:48;22.90;99.90
42833;DHT22;64089;51.478;5.692;2023-06-10T07:24:13;23.00;99.90
42833;DHT22;64089;51.478;5.692;2023-06-10T07:26:39;23.10;99.90
42833;DHT22;64089;51.478;5.692;2023-06-10T07:29:05;23.10;99.90
42833;DHT22;64089;51.478;5.692;2023-06-10T07:31:30;23.00;99.90
42833;DHT22;64089;51.478;5.692;2023-06-10T07:33:56;23.10;99.90
42833;DHT22;64089;51.478;5.692;2023-06-10T07:36:21;23.20;99.90
42833;DHT22;64089;51.478;5.692;2023-06-10T07:38:47;23.30;99.90
42833;DHT22;64089;51.478;5.692;2023-06-10T07:41:13;23.40;99.90
42833;DHT22;64089;51.478;5.692;2023-06-10T07:43:39;23.40;99.20
42833;DHT22;64089;51.478;5.692;2023-06-10T07:46:05;23.50;99.50
42833;DHT22;64089;51.478;5.692;2023-06-10T07:48:31;23.60;99.40
42833;DHT22;64089;51.478;5.692;2023-06-10T07:50:57;23.70;99.30
42833;DHT22;64089;51.478;5.692;2023-06-10T07:53:22;23.80;99.00
42833;DHT22;64089;51.478;5.692;2023-06-10T07:55:48;23.90;98.80
42833;DHT22;64089;51.478;5.692;2023-06-10T07:58:13;24.00;98.80
42833;DHT22;64089;51.478;5.692;2023-06-10T08:00:39;24.10;98.90
42833;DHT22;64089;51.478;5.692;2023-06-10T08:03:04;24.10;98.70
42833;DHT22;64089;51.478;5.692;2023-06-10T08:05:30;24.20;99.00
42833;DHT22;64089;51.478;5.692;2023-06-10T08:07:56;24.30;98.90
42833;DHT22;64089;51.478;5.692;2023-06-10T08:10:21;24.40;98.50
42833;DHT22;64089;51.478;5.692;2023-06-10T08:12:47;24.40;98.20
42833;DHT22;64089;51.478;5.692;2023-06-10T08:15:12;24.40;98.60
42833;DHT22;64089;51.478;5.692;2023-06-10T08:17:38;24.30;98.20
42833;DHT22;64089;51.478;5.692;2023-06-10T08:20:05;24.40;98.20
42833;DHT22;64089;51.478;5.692;2023-06-10T08:22:31;24.40;98.10
42833;DHT22;64089;51.478;5.692;2023-06-10T08:24:57;24.50;98.00
42833;DHT22;64089;51.478;5.692;2023-06-10T08:27:22;24.60;97.40
42833;DHT22;64089;51.478;5.692;2023-06-10T08:29:48;24.60;97.40
42833;DHT22;64089;51.478;5.692;2023-06-10T08:32:13;24.60;97.30
42833;DHT22;64089;51.478;5.692;2023-06-10T08:34:39;24.80;97.50
42833;DHT22;64089;51.478;5.692;2023-06-10T08:37:06;25.00;96.90
42833;DHT22;64089;51.478;5.692;2023-06-10T08:39:32;25.00;96.90
42833;DHT22;64089;51.478;5.692;2023-06-10T08:42:22;25.20;96.00
42833;DHT22;64089;51.478;5.692;2023-06-10T08:44:50;25.20;96.20
42833;DHT22;64089;51.478;5.692;2023-06-10T08:47:18;25.30;96.00
42833;DHT22;64089;51.478;5.692;2023-06-10T08:49:46;25.40;95.90
42833;DHT22;64089;51.478;5.692;2023-06-10T08:52:17;25.60;95.50
42833;DHT22;64089;51.478;5.692;2023-06-10T08:54:48;25.70;95.40
42833;DHT22;64089;51.478;5.692;2023-06-10T08:57:15;25.80;95.10
42833;DHT22;64089;51.478;5.692;2023-06-10T08:59:42;25.90;95.30
42833;DHT22;64089;51.478;5.692;2023-06-10T09:02:08;26.00;95.30
42833;DHT22;64089;51.478;5.692;2023-06-10T09:04:36;26.10;94.70
42833;DHT22;64089;51.478;5.692;2023-06-10T09:07:02;26.20;94.60
42833;DHT22;64089;51.478;5.692;2023-06-10T09:09:29;26.20;94.70
42833;DHT22;64089;51.478;5.692;2023-06-10T09:11:58;26.20;94.40
42833;DHT22;64089;51.478;5.692;2023-06-10T09:14:23;26.30;94.50
42833;DHT22;64089;51.478;5.692;2023-06-10T09:16:49;26.30;93.70
42833;DHT22;64089;51.478;5.692;2023-06-10T09:19:16;26.30;93.90
42833;DHT22;64089;51.478;5.692;2023-06-10T09:21:42;26.50;94.50
42833;DHT22;64089;51.478;5.692;2023-06-10T09:24:08;26.30;93.90
42833;DHT22;64089;51.478;5.692;2023-06-10T09:26:33;26.30;94.00
42833;DHT22;64089;51.478;5.692;2023-06-10T09:29:06;26.40;94.30
42833;DHT22;64089;51.478;5.692;2023-06-10T09:31:37;26.50;94.50
42833;DHT22;64089;51.478;5.692;2023-06-10T09:34:11;26.70;94.50
42833;DHT22;64089;51.478;5.692;2023-06-10T09:36:38;26.70;93.70
42833;DHT22;64089;51.478;5.692;2023-06-10T09:39:04;26.80;93.60
42833;DHT22;64089;51.478;5.692;2023-06-10T09:41:34;26.80;93.40
42833;DHT22;64089;51.478;5.692;2023-06-10T09:44:01;26.80;93.80
42833;DHT22;64089;51.478;5.692;2023-06-10T09:46:31;26.90;93.90
42833;DHT22;64089;51.478;5.692;2023-06-10T09:48:59;27.10;93.60
42833;DHT22;64089;51.478;5.692;2023-06-10T09:51:26;27.00;93.20
42833;DHT22;64089;51.478;5.692;2023-06-10T09:53:52;26.90;93.20
42833;DHT22;64089;51.478;5.692;2023-06-10T09:56:18;27.10;93.70
42833;DHT22;64089;51.478;5.692;2023-06-10T09:58:45;27.20;93.50
42833;DHT22;64089;51.478;5.692;2023-06-10T10:01:13;27.40;93.30
42833;DHT22;64089;51.478;5.692;2023-06-10T10:03:52;27.50;93.20
42833;DHT22;64089;51.478;5.692;2023-06-10T10:06:18;27.50;93.10
42833;DHT22;64089;51.478;5.692;2023-06-10T10:08:49;27.60;92.90
42833;DHT22;64089;51.478;5.692;2023-06-10T10:11:17;27.80;93.00
42833;DHT22;64089;51.478;5.692;2023-06-10T10:13:45;27.90;92.70
42833;DHT22;64089;51.478;5.692;2023-06-10T10:16:16;28.00;92.40
42833;DHT22;64089;51.478;5.692;2023-06-10T10:18:59;27.90;92.10
42833;DHT22;64089;51.478;5.692;2023-06-10T10:21:31;27.90;92.40
42833;DHT22;64089;51.478;5.692;2023-06-10T10:24:02;27.90;92.10
42833;DHT22;64089;51.478;5.692;2023-06-10T10:26:29;27.90;92.00
42833;DHT22;64089;51.478;5.692;2023-06-10T10:31:32;28.20;92.40
42833;DHT22;64089;51.478;5.692;2023-06-10T10:34:06;28.40;92.50
42833;DHT22;64089;51.478;5.692;2023-06-10T10:36:32;28.60;91.90
42833;DHT22;64089;51.478;5.692;2023-06-10T10:38:58;28.60;91.30
42833;DHT22;64089;51.478;5.692;2023-06-10T10:41:27;28.60;91.70
42833;DHT22;64089;51.478;5.692;2023-06-10T10:43:54;28.60;91.90
42833;DHT22;64089;51.478;5.692;2023-06-10T10:46:20;28.90;91.50
42833;DHT22;64089;51.478;5.692;2023-06-10T10:48:52;29.00;91.30
42833;DHT22;64089;51.478;5.692;2023-06-10T10:51:18;29.00;91.30
42833;DHT22;64089;51.478;5.692;2023-06-10T10:53:44;29.10;91.20
42833;DHT22;64089;51.478;5.692;2023-06-10T10:56:16;29.20;90.30
42833;DHT22;64089;51.478;5.692;2023-06-10T10:59:18;29.00;90.20
42833;DHT22;64089;51.478;5.692;2023-06-10T11:01:45;29.30;90.50
42833;DHT22;64089;51.478;5.692;2023-06-10T11:04:12;29.40;90.40
42833;DHT22;64089;51.478;5.692;2023-06-10T11:06:37;29.40;90.60
42833;DHT22;64089;51.478;5.692;2023-06-10T11:09:26;29.40;90.40
42833;DHT22;64089;51.478;5.692;2023-06-10T11:11:53;29.30;89.60
42833;DHT22;64089;51.478;5.692;2023-06-10T11:14:29;29.40;89.20
42833;DHT22;64089;51.478;5.692;2023-06-10T11:16:58;29.50;89.70
42833;DHT22;64089;51.478;5.692;2023-06-10T11:19:37;29.60;90.10
42833;DHT22;64089;51.478;5.692;2023-06-10T11:22:06;29.90;89.40
42833;DHT22;64089;51.478;5.692;2023-06-10T11:24:32;29.70;89.10
42833;DHT22;64089;51.478;5.692;2023-06-10T11:27:21;30.00;89.30
42833;DHT22;64089;51.478;5.692;2023-06-10T11:32:33;29.80;86.10
42833;DHT22;64089;51.478;5.692;2023-06-10T11:35:00;29.60;85.10
42833;DHT22;64089;51.478;5.692;2023-06-10T11:37:25;29.70;86.20
42833;DHT22;64089;51.478;5.692;2023-06-10T11:39:55;29.80;86.00
42833;DHT22;64089;51.478;5.692;2023-06-10T11:42:25;29.90;86.70
42833;DHT22;64089;51.478;5.692;2023-06-10T11:44:51;29.90;86.90
42833;DHT22;64089;51.478;5.692;2023-06-10T11:47:18;29.80;85.40
42833;DHT22;64089;51.478;5.692;2023-06-10T11:49:44;29.70;85.90
42833;DHT22;64089;51.478;5.692;2023-06-10T11:52:10;29.70;85.80
42833;DHT22;64089;51.478;5.692;2023-06-10T11:54:37;29.80;86.30
42833;DHT22;64089;51.478;5.692;2023-06-10T11:57:03;29.90;85.80
42833;DHT22;64089;51.478;5.692;2023-06-10T11:59:29;29.90;85.20
42833;DHT22;64089;51.478;5.692;2023-06-10T12:01:56;30.00;85.70
42833;DHT22;64089;51.478;5.692;2023-06-10T12:04:21;30.10;84.70
42833;DHT22;64089;51.478;5.692;2023-06-10T12:06:49;30.40;85.00
42833;DHT22;64089;51.478;5.692;2023-06-10T12:11:50;30.30;83.80
42833;DHT22;64089;51.478;5.692;2023-06-10T12:14:16;30.50;84.90
42833;DHT22;64089;51.478;5.692;2023-06-10T12:16:48;30.50;82.70
42833;DHT22;64089;51.478;5.692;2023-06-10T12:19:15;30.50;82.70
42833;DHT22;64089;51.478;5.692;2023-06-10T12:21:40;30.70;83.40
42833;DHT22;64089;51.478;5.692;2023-06-10T12:24:10;30.70;82.30
42833;DHT22;64089;51.478;5.692;2023-06-10T12:26:42;30.70;80.80
42833;DHT22;64089;51.478;5.692;2023-06-10T12:34:19;30.90;81.70
42833;DHT22;64089;51.478;5.692;2023-06-10T12:36:49;31.00;81.60
42833;DHT22;64089;51.478;5.692;2023-06-10T12:39:15;31.20;81.20
42833;DHT22;64089;51.478;5.692;2023-06-10T12:41:40;31.00;80.90
42833;DHT22;64089;51.478;5.692;2023-06-10T12:44:12;31.10;81.50
42833;DHT22;64089;51.478;5.692;2023-06-10T12:46:37;31.30;81.20
42833;DHT22;64089;51.478;5.692;2023-06-10T12:49:03;31.40;81.20
42833;DHT22;64089;51.478;5.692;2023-06-10T12:51:28;31.50;80.10
42833;DHT22;64089;51.478;5.692;2023-06-10T12:53:54;31.30;79.40
42833;DHT22;64089;51.478;5.692;2023-06-10T12:56:20;31.10;79.30
42833;DHT22;64089;51.478;5.692;2023-06-10T12:58:47;31.10;79.30
42833;DHT22;64089;51.478;5.692;2023-06-10T13:01:13;31.30;80.00
42833;DHT22;64089;51.478;5.692;2023-06-10T13:03:39;31.40;80.00
42833;DHT22;64089;51.478;5.692;2023-06-10T13:06:05;31.30;79.80
42833;DHT22;64089;51.478;5.692;2023-06-10T13:08:32;31.30;80.00
42833;DHT22;64089;51.478;5.692;2023-06-10T13:10:58;31.30;80.00
42833;DHT22;64089;51.478;5.692;2023-06-10T13:13:23;31.50;79.10
42833;DHT22;64089;51.478;5.692;2023-06-10T13:15:49;31.50;77.30
42833;DHT22;64089;51.478;5.692;2023-06-10T13:18:15;31.30;76.80
42833;DHT22;64089;51.478;5.692;2023-06-10T13:20:43;31.40;77.40
42833;DHT22;64089;51.478;5.692;2023-06-10T13:23:09;31.70;78.20
42833;DHT22;64089;51.478;5.692;2023-06-10T13:25:34;32.30;77.50
42833;DHT22;64089;51.478;5.692;2023-06-10T13:28:00;32.30;76.30
42833;DHT22;64089;51.478;5.692;2023-06-10T13:30:26;32.10;76.40
42833;DHT22;64089;51.478;5.692;2023-06-10T13:32:52;32.20;76.40
42833;DHT22;64089;51.478;5.692;2023-06-10T13:35:17;32.30;76.50
42833;DHT22;64089;51.478;5.692;2023-06-10T13:37:43;32.60;76.60
42833;DHT22;64089;51.478;5.692;2023-06-10T13:40:09;32.50;73.60
42833;DHT22;64089;51.478;5.692;2023-06-10T13:42:35;32.60;73.70
42833;DHT22;64089;51.478;5.692;2023-06-10T13:45:02;32.90;74.60
42833;DHT22;64089;51.478;5.692;2023-06-10T13:47:28;32.90;75.10
42833;DHT22;64089;51.478;5.692;2023-06-10T13:49:54;33.10;75.40
42833;DHT22;64089;51.478;5.692;2023-06-10T13:52:20;33.30;74.30
42833;DHT22;64089;51.478;5.692;2023-06-10T13:54:45;33.20;70.70
42833;DHT22;64089;51.478;5.692;2023-06-10T13:57:11;33.30;72.60
42833;DHT22;64089;51.478;5.692;2023-06-10T13:59:36;33.30;73.40
42833;DHT22;64089;51.478;5.692;2023-06-10T14:02:02;33.50;73.40
42833;DHT22;64089;51.478;5.692;2023-06-10T14:04:29;33.30;72.00
42833;DHT22;64089;51.478;5.692;2023-06-10T14:06:54;32.90;72.30
42833;DHT22;64089;51.478;5.692;2023-06-10T14:09:20;32.80;72.50
42833;DHT22;64089;51.478;5.692;2023-06-10T14:11:46;32.90;73.00
42833;DHT22;64089;51.478;5.692;2023-06-10T14:14:12;32.80;72.90
42833;DHT22;64089;51.478;5.692;2023-06-10T14:16:39;32.30;72.90
42833;DHT22;64089;51.478;5.692;2023-06-10T14:19:05;32.20;73.30
42833;DHT22;64089;51.478;5.692;2023-06-10T14:21:30;32.30;73.60
42833;DHT22;64089;51.478;5.692;2023-06-10T14:23:56;32.40;72.80
42833;DHT22;64089;51.478;5.692;2023-06-10T14:26:21;32.30;72.80
42833;DHT22;64089;51.478;5.692;2023-06-10T14:28:48;32.60;73.50
42833;DHT22;64089;51.478;5.692;2023-06-10T14:31:15;33.00;73.00
42833;DHT22;64089;51.478;5.692;2023-06-10T14:33:41;33.10;72.70
42833;DHT22;64089;51.478;5.692;2023-06-10T14:36:09;32.70;73.20
42833;DHT22;64089;51.478;5.692;2023-06-10T14:38:34;32.40;72.80
42833;DHT22;64089;51.478;5.692;2023-06-10T14:41:00;32.00;72.80
42833;DHT22;64089;51.478;5.692;2023-06-10T14:43:25;31.70;73.30
42833;DHT22;64089;51.478;5.692;2023-06-10T14:45:51;31.30;73.40
42833;DHT22;64089;51.478;5.692;2023-06-10T14:48:16;31.40;74.10
42833;DHT22;64089;51.478;5.692;2023-06-10T14:50:42;31.60;73.40
42833;DHT22;64089;51.478;5.692;2023-06-10T14:53:10;31.80;73.30
42833;DHT22;64089;51.478;5.692;2023-06-10T14:55:36;31.80;73.00
42833;DHT22;64089;51.478;5.692;2023-06-10T14:58:02;32.30;73.40
42833;DHT22;64089;51.478;5.692;2023-06-10T15:00:27;32.70;73.10
42833;DHT22;64089;51.478;5.692;2023-06-10T15:02:53;33.20;73.00
42833;DHT22;64089;51.478;5.692;2023-06-10T15:05:21;33.10;72.70
42833;DHT22;64089;51.478;5.692;2023-06-10T15:07:47;33.10;72.50
42833;DHT22;64089;51.478;5.692;2023-06-10T15:10:13;32.80;72.20
42833;DHT22;64089;51.478;5.692;2023-06-10T15:12:38;32.50;72.00
42833;DHT22;64089;51.478;5.692;2023-06-10T15:15:04;32.10;72.40
42833;DHT22;64089;51.478;5.692;2023-06-10T15:17:30;31.70;72.80
42833;DHT22;64089;51.478;5.692;2023-06-10T15:19:55;31.60;73.10
42833;DHT22;64089;51.478;5.692;2023-06-10T15:22:21;32.00;73.30
42833;DHT22;64089;51.478;5.692;2023-06-10T15:24:47;32.60;73.60
42833;DHT22;64089;51.478;5.692;2023-06-10T15:27:12;32.70;73.00
42833;DHT22;64089;51.478;5.692;2023-06-10T15:29:38;32.80;73.10
42833;DHT22;64089;51.478;5.692;2023-06-10T15:32:04;32.40;73.40
42833;DHT22;64089;51.478;5.692;2023-06-10T15:34:30;31.90;73.40
42833;DHT22;64089;51.478;5.692;2023-06-10T15:36:56;31.60;73.90
42833;DHT22;64089;51.478;5.692;2023-06-10T15:39:21;31.60;74.80
42833;DHT22;64089;51.478;5.692;2023-06-10T15:41:47;31.40;74.30